Vancouver International Airport
CYVR : rendu visible

Aérodrome :











RETROUVEZ-NOUS SUR...

 
LOGIN :

S'inscrire | Disclaimer

   EN    FR    IT 

 









Légende :    VFR   VFR Marginal   IFR   IFR Intensif   IFR Très Intensif
Visi : 
Plafond : 
>= 8 km
>= 3000ft
5 à 8 km
1000 à 3000 ft
1500m à 5 km
500 à 1000 ft
800 à 1500m
200 à 500 ft
< 800m
< 200 ft
Symboles :   Orages  Brouillard  Fortes neiges  Fortes précipitations  Vent > 20 kt






- Altitude de l'aérodrome : 14 ft
- Code IATA : YVR


CYVR - Vancouver International

DERNIER METAR :
  • 201700Z VRB02KT 30SM FEW250 03/01 A3023 RMK CS2 SLP239

METARs EXPIRÉS :
  • 201600Z 10006KT 30SM SCT250 01/M01 A3023 RMK CS3 SLP237
  • 201500Z 31002KT 30SM SKC 01/M01 A3022 RMK SLP235

TAF TAF CYVR
Valide du 20 à 18h jusqu'au 22 à 00h UTC


201738Z 2018/2124 VRB03KT P6SM FEW250
BECMG 2018/2020 30010KT
BECMG 2106/2107 09005KT
FM211900 22008KT P6SM FEW250 RMK NXT FCST BY 202100Z



MET'MAP, la Météo Aéronautique d'un coup d'oeil ! - Copyright ORBIFLY Décembre 2007 - Disclaimer

ORBIFLY MET'MAP TEAM :

Programmation & Développement : Alexandra Zaïnal
Conception & Développement : Baudouin d'Aumeries
Co-Programmation & Développement : Marc-Olivier Méhu
Soutien technique & logistique : Manuel Goepfert

Contact : metmap@orbifly.com




SOURCES & CREDITS :

   NOAA       Earth
Advisory